Bangor International Airport Bangor US
ICAO: KBGR
IATA: BGR
Category: Large
Scheduled Services: Yes

Elevation: 192 ft
TransAlt. 18000 ft.

Airport Communications:
APP/DEP:118.925
ASOS:127.75
ATIS:127.75
CLNC DEL:135.9
GND:121.9
ARNG OPS:41.2
ANG OPS:31.1
RDO:122.2
TWR:120.7
UNICOM:122.95

KBGR Zoom In..

Runways:

(A) RW 15 length 11440 ft width 200 ft
ILS 109.50 / hdg 153

(B) RW 33 length 11440 ft width 200 ft
ILS 109.50 / hdg 333

Location; KBGR
Day. 22 / Time. 03.53 Zulu
* Altimeter: 30.22
* Temperature: -01° c. -30.2°f.
* Wind from: 360° Speed 05 kn.
Dewpoint: -08° c.
Visibility: 10 Statute Miles.
Clouds: Broken 5000 ft.
Clouds: Overcast 1000 ft.

KBGR 220353Z 36005KT 10SM BKN050 OVC100 M01/M08 A3022 RMK AO2 SLP235 T10111083


Wind From 360°
Speed 05 kn.

jpsM music video
CHECK IT OUT

jpsM - It Moves..

 
jpsmedia.com for Web Design  worldairports.se 2018   terms of use